Pursley, Texas
Current Conditions -  °F | °C
As of 10:53 PM on Tuesday 25 Nov 2014 (Local Time) from KCRS Reporting Station
Clear Clear  
Wind Chill: 42°   Ceiling: Unl
Heat Index: 46°   Visibility: 10mi
Dew Point: 28°   Wind: 7mph
Humidity: 50%   Direction: 220°SW
Pressure: 30.18"   Gusts: NA
Location:  31.9458°N, 96.5713°W
Report Text: KCRS 260453Z AUTO 22006KT 10SM CLR 08/M02 A3018 RMK AO2 SLP220 T00781022
Loading
Personal Weather Stations






























Interactive Weather Map New forecast layout! Learn more

10-Day Weather Forecast

Advertisements
Track Severe Weather on mobile